sensor_id;sensor_type;location;lat;lon;timestamp;pressure;altitude;pressure_sealevel;temperature;humidity
12219;BME280;6172;42.646;23.344;2024-03-29T00:01:04;94364.41;;;10.16;100.00
12219;BME280;6172;42.646;23.344;2024-03-29T00:03:31;94360.22;;;10.12;100.00
12219;BME280;6172;42.646;23.344;2024-03-29T00:05:57;94358.31;;;10.09;100.00
12219;BME280;6172;42.646;23.344;2024-03-29T00:08:23;94361.69;;;9.97;100.00
12219;BME280;6172;42.646;23.344;2024-03-29T00:10:49;94359.78;;;10.13;100.00
12219;BME280;6172;42.646;23.344;2024-03-29T00:13:15;94352.72;;;10.16;100.00
12219;BME280;6172;42.646;23.344;2024-03-29T00:15:41;94362.16;;;10.11;100.00
12219;BME280;6172;42.646;23.344;2024-03-29T00:18:07;94367.91;;;10.17;100.00
12219;BME280;6172;42.646;23.344;2024-03-29T00:20:35;94377.19;;;10.19;100.00
12219;BME280;6172;42.646;23.344;2024-03-29T00:23:00;94371.72;;;10.00;100.00
12219;BME280;6172;42.646;23.344;2024-03-29T00:25:26;94377.03;;;10.07;100.00
12219;BME280;6172;42.646;23.344;2024-03-29T00:27:52;94388.97;;;10.13;99.01
12219;BME280;6172;42.646;23.344;2024-03-29T00:30:18;94387.63;;;10.01;100.00
12219;BME280;6172;42.646;23.344;2024-03-29T00:32:44;94385.22;;;10.07;97.53
12219;BME280;6172;42.646;23.344;2024-03-29T00:35:10;94387.06;;;10.10;98.13
12219;BME280;6172;42.646;23.344;2024-03-29T00:37:37;94394.50;;;10.09;99.77
12219;BME280;6172;42.646;23.344;2024-03-29T00:40:04;94395.59;;;10.12;98.67
12219;BME280;6172;42.646;23.344;2024-03-29T00:42:30;94398.47;;;10.05;99.04
12219;BME280;6172;42.646;23.344;2024-03-29T00:44:56;94391.13;;;10.02;99.05
12219;BME280;6172;42.646;23.344;2024-03-29T00:47:22;94396.28;;;9.96;99.88
12219;BME280;6172;42.646;23.344;2024-03-29T00:49:48;94387.34;;;9.96;100.00
12219;BME280;6172;42.646;23.344;2024-03-29T00:52:13;94384.63;;;9.96;100.00
12219;BME280;6172;42.646;23.344;2024-03-29T00:54:41;94397.13;;;9.90;100.00
12219;BME280;6172;42.646;23.344;2024-03-29T00:57:07;94402.97;;;9.92;100.00
12219;BME280;6172;42.646;23.344;2024-03-29T00:59:33;94400.81;;;9.80;100.00
12219;BME280;6172;42.646;23.344;2024-03-29T01:01:59;94399.06;;;9.93;100.00
12219;BME280;6172;42.646;23.344;2024-03-29T01:04:24;94401.25;;;10.01;98.99
12219;BME280;6172;42.646;23.344;2024-03-29T01:06:50;94401.41;;;9.91;99.74
12219;BME280;6172;42.646;23.344;2024-03-29T01:09:16;94396.34;;;9.93;99.32
12219;BME280;6172;42.646;23.344;2024-03-29T01:11:44;94409.00;;;10.03;99.57
12219;BME280;6172;42.646;23.344;2024-03-29T01:14:09;94399.72;;;10.00;99.05
12219;BME280;6172;42.646;23.344;2024-03-29T01:16:35;94408.25;;;10.02;98.53
12219;BME280;6172;42.646;23.344;2024-03-29T01:19:01;94414.03;;;10.04;97.85
12219;BME280;6172;42.646;23.344;2024-03-29T01:21:27;94412.38;;;10.10;96.63
12219;BME280;6172;42.646;23.344;2024-03-29T01:23:53;94413.84;;;10.15;95.54
12219;BME280;6172;42.646;23.344;2024-03-29T01:26:19;94415.03;;;10.14;95.73
12219;BME280;6172;42.646;23.344;2024-03-29T01:28:47;94413.47;;;10.13;95.61
12219;BME280;6172;42.646;23.344;2024-03-29T01:31:13;94417.41;;;10.12;95.46
12219;BME280;6172;42.646;23.344;2024-03-29T01:33:39;94414.66;;;10.12;95.66
12219;BME280;6172;42.646;23.344;2024-03-29T01:36:05;94415.88;;;10.11;95.54
12219;BME280;6172;42.646;23.344;2024-03-29T01:38:31;94413.56;;;10.09;95.41
12219;BME280;6172;42.646;23.344;2024-03-29T01:40:57;94420.47;;;10.14;95.22
12219;BME280;6172;42.646;23.344;2024-03-29T01:43:23;94429.06;;;10.12;95.43
12219;BME280;6172;42.646;23.344;2024-03-29T01:45:53;94422.06;;;10.11;96.27
12219;BME280;6172;42.646;23.344;2024-03-29T01:48:21;94431.84;;;10.09;97.60
12219;BME280;6172;42.646;23.344;2024-03-29T01:50:50;94439.34;;;10.01;96.76
12219;BME280;6172;42.646;23.344;2024-03-29T01:53:18;94440.50;;;10.04;95.75
12219;BME280;6172;42.646;23.344;2024-03-29T01:55:46;94440.31;;;9.91;96.16
12219;BME280;6172;42.646;23.344;2024-03-29T01:58:14;94454.94;;;10.01;95.91
12219;BME280;6172;42.646;23.344;2024-03-29T02:00:48;94462.75;;;9.99;95.52
12219;BME280;6172;42.646;23.344;2024-03-29T02:03:17;94459.69;;;9.97;95.13
12219;BME280;6172;42.646;23.344;2024-03-29T02:05:45;94461.97;;;9.98;95.38
12219;BME280;6172;42.646;23.344;2024-03-29T02:08:13;94472.84;;;9.98;93.90
12219;BME280;6172;42.646;23.344;2024-03-29T02:10:41;94477.84;;;10.03;93.23
12219;BME280;6172;42.646;23.344;2024-03-29T02:13:09;94486.28;;;10.09;92.55
12219;BME280;6172;42.646;23.344;2024-03-29T02:15:36;94498.84;;;10.03;93.82
12219;BME280;6172;42.646;23.344;2024-03-29T02:18:03;94507.56;;;9.91;96.15
12219;BME280;6172;42.646;23.344;2024-03-29T02:20:32;94498.25;;;9.88;98.00
12219;BME280;6172;42.646;23.344;2024-03-29T02:23:06;94508.03;;;9.86;97.14
12219;BME280;6172;42.646;23.344;2024-03-29T02:25:38;94514.59;;;9.88;97.80
12219;BME280;6172;42.646;23.344;2024-03-29T02:28:05;94521.16;;;9.94;97.49
12219;BME280;6172;42.646;23.344;2024-03-29T02:30:32;94522.63;;;9.99;96.53
12219;BME280;6172;42.646;23.344;2024-03-29T02:32:59;94522.63;;;9.99;96.64
12219;BME280;6172;42.646;23.344;2024-03-29T02:35:27;94535.13;;;9.96;98.39
12219;BME280;6172;42.646;23.344;2024-03-29T02:37:54;94546.00;;;9.96;98.17
12219;BME280;6172;42.646;23.344;2024-03-29T02:40:21;94550.34;;;9.94;99.47
12219;BME280;6172;42.646;23.344;2024-03-29T02:42:50;94551.47;;;9.96;100.00
12219;BME280;6172;42.646;23.344;2024-03-29T02:45:18;94560.47;;;9.90;100.00
12219;BME280;6172;42.646;23.344;2024-03-29T02:47:44;94554.69;;;9.88;100.00
12219;BME280;6172;42.646;23.344;2024-03-29T02:50:14;94554.22;;;9.93;100.00
12219;BME280;6172;42.646;23.344;2024-03-29T02:52:40;94558.94;;;9.89;100.00
12219;BME280;6172;42.646;23.344;2024-03-29T02:55:08;94565.19;;;9.86;100.00
12219;BME280;6172;42.646;23.344;2024-03-29T02:57:36;94552.88;;;9.78;100.00
12219;BME280;6172;42.646;23.344;2024-03-29T03:00:05;94548.38;;;9.68;100.00
12219;BME280;6172;42.646;23.344;2024-03-29T03:02:31;94560.81;;;9.65;100.00
12219;BME280;6172;42.646;23.344;2024-03-29T03:04:58;94558.25;;;9.55;100.00
12219;BME280;6172;42.646;23.344;2024-03-29T03:07:25;94556.72;;;9.54;100.00
12219;BME280;6172;42.646;23.344;2024-03-29T03:10:09;94564.56;;;9.48;100.00
12219;BME280;6172;42.646;23.344;2024-03-29T03:12:54;94576.25;;;9.45;100.00
12219;BME280;6172;42.646;23.344;2024-03-29T03:15:22;94573.19;;;9.43;100.00
12219;BME280;6172;42.646;23.344;2024-03-29T03:17:49;94571.28;;;9.40;100.00
12219;BME280;6172;42.646;23.344;2024-03-29T03:20:16;94575.59;;;9.38;100.00
12219;BME280;6172;42.646;23.344;2024-03-29T03:22:42;94580.28;;;9.34;100.00
12219;BME280;6172;42.646;23.344;2024-03-29T03:25:09;94581.78;;;9.38;100.00
12219;BME280;6172;42.646;23.344;2024-03-29T03:27:35;94588.41;;;9.37;100.00
12219;BME280;6172;42.646;23.344;2024-03-29T03:30:01;94598.56;;;9.33;100.00
12219;BME280;6172;42.646;23.344;2024-03-29T03:32:29;94599.09;;;9.21;100.00
12219;BME280;6172;42.646;23.344;2024-03-29T03:34:56;94596.69;;;9.27;100.00
12219;BME280;6172;42.646;23.344;2024-03-29T03:37:22;94599.06;;;9.25;100.00
12219;BME280;6172;42.646;23.344;2024-03-29T03:39:48;94601.47;;;9.19;100.00
12219;BME280;6172;42.646;23.344;2024-03-29T03:42:14;94611.50;;;9.22;100.00
12219;BME280;6172;42.646;23.344;2024-03-29T03:44:41;94627.00;;;9.29;100.00
12219;BME280;6172;42.646;23.344;2024-03-29T03:47:07;94624.66;;;9.31;100.00
12219;BME280;6172;42.646;23.344;2024-03-29T03:49:36;94616.09;;;9.32;100.00
12219;BME280;6172;42.646;23.344;2024-03-29T03:52:02;94633.16;;;9.33;100.00
12219;BME280;6172;42.646;23.344;2024-03-29T03:54:29;94632.72;;;9.01;100.00
12219;BME280;6172;42.646;23.344;2024-03-29T03:56:55;94633.03;;;9.10;100.00
12219;BME280;6172;42.646;23.344;2024-03-29T03:59:22;94641.78;;;9.28;100.00
12219;BME280;6172;42.646;23.344;2024-03-29T04:01:48;94637.88;;;9.25;100.00
12219;BME280;6172;42.646;23.344;2024-03-29T04:04:17;94637.06;;;9.32;100.00
12219;BME280;6172;42.646;23.344;2024-03-29T04:06:44;94640.47;;;9.39;100.00
12219;BME280;6172;42.646;23.344;2024-03-29T04:09:16;94643.94;;;9.40;100.00
12219;BME280;6172;42.646;23.344;2024-03-29T04:11:43;94640.06;;;9.41;100.00
12219;BME280;6172;42.646;23.344;2024-03-29T04:14:09;94649.38;;;9.40;100.00
12219;BME280;6172;42.646;23.344;2024-03-29T04:16:36;94655.19;;;9.42;100.00
12219;BME280;6172;42.646;23.344;2024-03-29T04:19:02;94656.00;;;9.39;100.00
12219;BME280;6172;42.646;23.344;2024-03-29T04:21:29;94657.81;;;9.49;100.00
12219;BME280;6172;42.646;23.344;2024-03-29T04:23:56;94669.94;;;9.44;100.00
12219;BME280;6172;42.646;23.344;2024-03-29T04:26:23;94682.91;;;9.30;100.00
12219;BME280;6172;42.646;23.344;2024-03-29T04:28:49;94684.91;;;9.26;100.00
12219;BME280;6172;42.646;23.344;2024-03-29T04:31:16;94686.03;;;8.91;100.00
12219;BME280;6172;42.646;23.344;2024-03-29T04:33:42;94681.03;;;8.86;100.00
12219;BME280;6172;42.646;23.344;2024-03-29T04:36:09;94685.75;;;8.79;100.00
12219;BME280;6172;42.646;23.344;2024-03-29T04:38:36;94692.19;;;8.99;100.00
12219;BME280;6172;42.646;23.344;2024-03-29T04:41:05;94695.69;;;8.96;100.00
12219;BME280;6172;42.646;23.344;2024-03-29T04:43:32;94700.25;;;9.06;100.00
12219;BME280;6172;42.646;23.344;2024-03-29T04:46:02;94703.28;;;9.15;100.00
12219;BME280;6172;42.646;23.344;2024-03-29T04:48:31;94709.00;;;9.24;100.00
12219;BME280;6172;42.646;23.344;2024-03-29T04:50:58;94725.28;;;9.31;100.00
12219;BME280;6172;42.646;23.344;2024-03-29T04:53:25;94717.59;;;9.56;100.00
12219;BME280;6172;42.646;23.344;2024-03-29T04:55:56;94715.91;;;10.29;100.00
12219;BME280;6172;42.646;23.344;2024-03-29T04:58:25;94720.88;;;11.33;99.43
12219;BME280;6172;42.646;23.344;2024-03-29T05:00:53;94730.84;;;11.63;89.84
12219;BME280;6172;42.646;23.344;2024-03-29T05:03:20;94736.38;;;11.59;86.66
12219;BME280;6172;42.646;23.344;2024-03-29T05:05:48;94724.53;;;11.46;87.91
12219;BME280;6172;42.646;23.344;2024-03-29T05:08:16;94733.63;;;11.40;90.88
12219;BME280;6172;42.646;23.344;2024-03-29T05:10:44;94729.13;;;11.30;90.38
12219;BME280;6172;42.646;23.344;2024-03-29T05:13:11;94728.38;;;11.26;91.27
12219;BME280;6172;42.646;23.344;2024-03-29T05:15:40;94736.69;;;11.19;92.40
12219;BME280;6172;42.646;23.344;2024-03-29T05:18:07;94738.78;;;11.11;92.86
12219;BME280;6172;42.646;23.344;2024-03-29T05:20:34;94741.13;;;11.09;90.92
12219;BME280;6172;42.646;23.344;2024-03-29T05:23:01;94749.31;;;11.09;91.25
12219;BME280;6172;42.646;23.344;2024-03-29T05:25:28;94745.72;;;11.16;91.38
12219;BME280;6172;42.646;23.344;2024-03-29T05:27:56;94734.78;;;11.16;93.53
12219;BME280;6172;42.646;23.344;2024-03-29T05:30:23;94747.69;;;11.38;94.38
12219;BME280;6172;42.646;23.344;2024-03-29T05:32:51;94751.78;;;12.08;96.15
12219;BME280;6172;42.646;23.344;2024-03-29T05:35:18;94746.03;;;14.40;84.85
12219;BME280;6172;42.646;23.344;2024-03-29T05:37:45;94736.22;;;17.02;63.32
12219;BME280;6172;42.646;23.344;2024-03-29T05:40:16;94743.16;;;19.29;47.92
12219;BME280;6172;42.646;23.344;2024-03-29T05:42:43;94729.97;;;21.34;41.12
12219;BME280;6172;42.646;23.344;2024-03-29T05:45:23;94726.19;;;23.03;35.94
12219;BME280;6172;42.646;23.344;2024-03-29T05:47:52;94734.50;;;24.24;32.54
12219;BME280;6172;42.646;23.344;2024-03-29T05:50:20;94725.84;;;24.97;30.29
12219;BME280;6172;42.646;23.344;2024-03-29T05:52:47;94723.38;;;26.11;28.46
12219;BME280;6172;42.646;23.344;2024-03-29T05:55:14;94720.75;;;27.17;26.52
12219;BME280;6172;42.646;23.344;2024-03-29T05:57:41;94718.72;;;26.36;25.94
12219;BME280;6172;42.646;23.344;2024-03-29T06:00:11;94723.34;;;26.69;25.70
12219;BME280;6172;42.646;23.344;2024-03-29T06:02:39;94722.44;;;27.60;24.68
12219;BME280;6172;42.646;23.344;2024-03-29T06:05:08;94725.75;;;28.31;24.02
12219;BME280;6172;42.646;23.344;2024-03-29T06:07:35;94730.97;;;27.73;24.09
12219;BME280;6172;42.646;23.344;2024-03-29T06:10:02;94744.06;;;25.70;26.49
12219;BME280;6172;42.646;23.344;2024-03-29T06:12:30;94737.16;;;23.97;28.26
12219;BME280;6172;42.646;23.344;2024-03-29T06:14:57;94738.44;;;24.71;27.77
12219;BME280;6172;42.646;23.344;2024-03-29T06:17:56;94739.91;;;24.39;27.85
12219;BME280;6172;42.646;23.344;2024-03-29T06:20:24;94744.34;;;25.06;27.25
12219;BME280;6172;42.646;23.344;2024-03-29T06:22:51;94739.03;;;25.24;27.08
12219;BME280;6172;42.646;23.344;2024-03-29T06:25:18;94740.28;;;24.21;28.32
12219;BME280;6172;42.646;23.344;2024-03-29T06:27:47;94735.53;;;23.73;28.89
12219;BME280;6172;42.646;23.344;2024-03-29T06:30:15;94753.78;;;24.33;27.83
12219;BME280;6172;42.646;23.344;2024-03-29T06:32:42;94751.91;;;23.29;29.06
12219;BME280;6172;42.646;23.344;2024-03-29T06:35:10;94741.91;;;23.48;28.91
12219;BME280;6172;42.646;23.344;2024-03-29T06:37:39;94751.97;;;23.77;28.82
12219;BME280;6172;42.646;23.344;2024-03-29T06:40:08;94746.78;;;23.59;28.75
12219;BME280;6172;42.646;23.344;2024-03-29T06:42:35;94743.50;;;23.55;28.71
12219;BME280;6172;42.646;23.344;2024-03-29T06:45:03;94747.81;;;24.04;28.31
12219;BME280;6172;42.646;23.344;2024-03-29T06:47:31;94752.50;;;23.44;28.54
12219;BME280;6172;42.646;23.344;2024-03-29T06:49:58;94755.00;;;22.80;29.55
12219;BME280;6172;42.646;23.344;2024-03-29T06:52:25;94762.13;;;23.80;28.58
12219;BME280;6172;42.646;23.344;2024-03-29T06:54:53;94763.66;;;23.81;28.73
12219;BME280;6172;42.646;23.344;2024-03-29T06:57:20;94757.47;;;24.08;27.99
12219;BME280;6172;42.646;23.344;2024-03-29T06:59:50;94760.47;;;23.26;29.47
12219;BME280;6172;42.646;23.344;2024-03-29T07:02:18;94747.47;;;23.85;28.74
12219;BME280;6172;42.646;23.344;2024-03-29T07:04:45;94764.31;;;23.34;29.32
12219;BME280;6172;42.646;23.344;2024-03-29T07:07:11;94768.19;;;23.78;28.54
12219;BME280;6172;42.646;23.344;2024-03-29T07:09:38;94766.00;;;24.47;28.06
12219;BME280;6172;42.646;23.344;2024-03-29T07:12:07;94764.22;;;23.96;28.25
12219;BME280;6172;42.646;23.344;2024-03-29T07:14:34;94776.38;;;23.98;28.30
12219;BME280;6172;42.646;23.344;2024-03-29T07:17:01;94769.22;;;23.81;28.37
12219;BME280;6172;42.646;23.344;2024-03-29T07:19:28;94777.53;;;24.23;28.38
12219;BME280;6172;42.646;23.344;2024-03-29T07:21:56;94780.94;;;24.44;27.59
12219;BME280;6172;42.646;23.344;2024-03-29T07:24:23;94785.53;;;23.31;29.10
12219;BME280;6172;42.646;23.344;2024-03-29T07:26:49;94784.47;;;22.98;29.88
12219;BME280;6172;42.646;23.344;2024-03-29T07:29:18;94774.19;;;23.66;29.18
12219;BME280;6172;42.646;23.344;2024-03-29T07:31:45;94770.72;;;23.45;29.31
12219;BME280;6172;42.646;23.344;2024-03-29T07:34:12;94779.47;;;23.33;29.56
12219;BME280;6172;42.646;23.344;2024-03-29T07:36:39;94774.56;;;23.48;29.21
12219;BME280;6172;42.646;23.344;2024-03-29T07:39:06;94775.06;;;23.46;29.02
12219;BME280;6172;42.646;23.344;2024-03-29T07:41:33;94787.78;;;22.96;30.12
12219;BME280;6172;42.646;23.344;2024-03-29T07:44:00;94773.72;;;24.26;28.68
12219;BME280;6172;42.646;23.344;2024-03-29T07:46:33;94767.34;;;24.09;28.94
12219;BME280;6172;42.646;23.344;2024-03-29T07:49:00;94771.56;;;24.41;28.51
12219;BME280;6172;42.646;23.344;2024-03-29T07:51:28;94766.78;;;23.94;28.70
12219;BME280;6172;42.646;23.344;2024-03-29T07:53:55;94773.34;;;23.23;29.67
12219;BME280;6172;42.646;23.344;2024-03-29T07:56:22;94764.13;;;23.43;29.71
12219;BME280;6172;42.646;23.344;2024-03-29T07:58:51;94768.59;;;24.08;27.78
12219;BME280;6172;42.646;23.344;2024-03-29T08:01:19;94772.69;;;23.70;28.25
12219;BME280;6172;42.646;23.344;2024-03-29T08:03:50;94782.00;;;23.62;29.20
12219;BME280;6172;42.646;23.344;2024-03-29T08:06:19;94783.13;;;23.13;29.83
12219;BME280;6172;42.646;23.344;2024-03-29T08:08:46;94777.00;;;23.71;28.93
12219;BME280;6172;42.646;23.344;2024-03-29T08:11:13;94770.97;;;23.78;28.27
12219;BME280;6172;42.646;23.344;2024-03-29T08:13:40;94771.22;;;23.44;28.70
12219;BME280;6172;42.646;23.344;2024-03-29T08:16:07;94761.75;;;22.99;29.82
12219;BME280;6172;42.646;23.344;2024-03-29T08:18:36;94759.69;;;22.69;29.76
12219;BME280;6172;42.646;23.344;2024-03-29T08:21:05;94759.91;;;23.16;29.90
12219;BME280;6172;42.646;23.344;2024-03-29T08:23:38;94754.03;;;23.45;29.12
12219;BME280;6172;42.646;23.344;2024-03-29T08:26:05;94755.41;;;23.24;29.10
12219;BME280;6172;42.646;23.344;2024-03-29T08:28:32;94754.59;;;23.49;29.13
12219;BME280;6172;42.646;23.344;2024-03-29T08:30:59;94750.31;;;22.66;30.04
12219;BME280;6172;42.646;23.344;2024-03-29T08:33:26;94750.09;;;22.95;30.04
12219;BME280;6172;42.646;23.344;2024-03-29T08:35:53;94742.63;;;23.38;29.78
12219;BME280;6172;42.646;23.344;2024-03-29T08:38:23;94747.84;;;23.25;29.59
12219;BME280;6172;42.646;23.344;2024-03-29T08:40:50;94745.94;;;22.85;29.90
12219;BME280;6172;42.646;23.344;2024-03-29T08:43:17;94739.09;;;23.43;29.53
12219;BME280;6172;42.646;23.344;2024-03-29T08:45:45;94734.69;;;23.62;29.07
12219;BME280;6172;42.646;23.344;2024-03-29T08:48:12;94727.03;;;23.57;29.62
12219;BME280;6172;42.646;23.344;2024-03-29T08:50:39;94739.81;;;23.69;28.94
12219;BME280;6172;42.646;23.344;2024-03-29T08:53:06;94739.84;;;23.80;29.51
12219;BME280;6172;42.646;23.344;2024-03-29T08:55:34;94736.81;;;23.78;28.68
12219;BME280;6172;42.646;23.344;2024-03-29T08:58:02;94724.41;;;24.27;28.06
12219;BME280;6172;42.646;23.344;2024-03-29T09:00:30;94725.69;;;24.37;27.97
12219;BME280;6172;42.646;23.344;2024-03-29T09:02:57;94708.88;;;24.15;27.53
12219;BME280;6172;42.646;23.344;2024-03-29T09:05:25;94711.34;;;24.02;27.69
12219;BME280;6172;42.646;23.344;2024-03-29T09:07:53;94705.94;;;24.40;28.00
12219;BME280;6172;42.646;23.344;2024-03-29T09:10:21;94697.72;;;24.09;28.17
12219;BME280;6172;42.646;23.344;2024-03-29T09:12:49;94687.78;;;23.97;27.69
12219;BME280;6172;42.646;23.344;2024-03-29T09:15:16;94685.81;;;24.03;27.51
12219;BME280;6172;42.646;23.344;2024-03-29T09:17:44;94687.69;;;24.34;26.85
12219;BME280;6172;42.646;23.344;2024-03-29T09:20:11;94695.59;;;24.57;26.28
12219;BME280;6172;42.646;23.344;2024-03-29T09:22:38;94691.28;;;24.62;26.89
12219;BME280;6172;42.646;23.344;2024-03-29T09:25:06;94685.41;;;24.32;25.90
12219;BME280;6172;42.646;23.344;2024-03-29T09:27:35;94691.53;;;24.53;25.80
12219;BME280;6172;42.646;23.344;2024-03-29T09:30:04;94683.31;;;24.16;25.80
12219;BME280;6172;42.646;23.344;2024-03-29T09:32:32;94675.84;;;24.55;25.61
12219;BME280;6172;42.646;23.344;2024-03-29T09:34:59;94673.31;;;24.63;25.37
12219;BME280;6172;42.646;23.344;2024-03-29T09:37:27;94666.69;;;24.49;26.34
12219;BME280;6172;42.646;23.344;2024-03-29T09:39:54;94665.69;;;24.58;25.57
12219;BME280;6172;42.646;23.344;2024-03-29T09:42:22;94665.75;;;25.07;24.91
12219;BME280;6172;42.646;23.344;2024-03-29T09:44:51;94661.25;;;24.07;25.61
12219;BME280;6172;42.646;23.344;2024-03-29T09:47:20;94656.84;;;23.73;25.91
12219;BME280;6172;42.646;23.344;2024-03-29T09:49:49;94657.72;;;23.48;26.05
12219;BME280;6172;42.646;23.344;2024-03-29T09:52:17;94655.34;;;23.77;26.59
12219;BME280;6172;42.646;23.344;2024-03-29T09:54:45;94645.59;;;24.10;26.67
12219;BME280;6172;42.646;23.344;2024-03-29T09:57:12;94643.94;;;24.73;26.18
12219;BME280;6172;42.646;23.344;2024-03-29T09:59:39;94642.66;;;24.79;25.66
12219;BME280;6172;42.646;23.344;2024-03-29T10:02:14;94639.34;;;24.86;24.89
12219;BME280;6172;42.646;23.344;2024-03-29T10:04:45;94637.06;;;24.30;25.54
12219;BME280;6172;42.646;23.344;2024-03-29T10:07:13;94641.50;;;23.94;26.36
12219;BME280;6172;42.646;23.344;2024-03-29T10:09:41;94638.19;;;22.69;27.38
12219;BME280;6172;42.646;23.344;2024-03-29T10:12:09;94637.00;;;23.54;26.66
12219;BME280;6172;42.646;23.344;2024-03-29T10:14:45;94630.25;;;23.61;27.40
12219;BME280;6172;42.646;23.344;2024-03-29T10:17:18;94637.84;;;23.71;26.48
12219;BME280;6172;42.646;23.344;2024-03-29T10:19:46;94631.53;;;23.23;26.91
12219;BME280;6172;42.646;23.344;2024-03-29T10:22:13;94620.97;;;23.33;27.03
12219;BME280;6172;42.646;23.344;2024-03-29T10:24:40;94622.75;;;23.89;26.16
12219;BME280;6172;42.646;23.344;2024-03-29T10:27:07;94624.31;;;24.07;25.67
12219;BME280;6172;42.646;23.344;2024-03-29T10:29:34;94635.75;;;24.25;26.15
12219;BME280;6172;42.646;23.344;2024-03-29T10:32:01;94632.44;;;24.21;26.71
12219;BME280;6172;42.646;23.344;2024-03-29T10:34:29;94625.19;;;23.65;27.78
12219;BME280;6172;42.646;23.344;2024-03-29T10:37:02;94623.84;;;23.55;27.96
12219;BME280;6172;42.646;23.344;2024-03-29T10:39:30;94622.00;;;23.94;27.64
12219;BME280;6172;42.646;23.344;2024-03-29T10:41:59;94615.69;;;23.93;27.77
12219;BME280;6172;42.646;23.344;2024-03-29T10:44:28;94621.09;;;24.30;27.14
12219;BME280;6172;42.646;23.344;2024-03-29T10:46:56;94614.97;;;24.15;27.67
12219;BME280;6172;42.646;23.344;2024-03-29T10:49:24;94613.66;;;24.00;28.05
12219;BME280;6172;42.646;23.344;2024-03-29T10:51:52;94620.44;;;22.92;28.00
12219;BME280;6172;42.646;23.344;2024-03-29T10:54:23;94613.16;;;22.33;28.79
12219;BME280;6172;42.646;23.344;2024-03-29T10:56:57;94613.38;;;21.84;29.34
12219;BME280;6172;42.646;23.344;2024-03-29T10:59:30;94607.44;;;22.42;29.18
12219;BME280;6172;42.646;23.344;2024-03-29T11:02:12;94610.66;;;22.66;28.63
12219;BME280;6172;42.646;23.344;2024-03-29T11:04:40;94599.78;;;22.11;30.23
12219;BME280;6172;42.646;23.344;2024-03-29T11:07:15;94590.81;;;22.84;28.52
12219;BME280;6172;42.646;23.344;2024-03-29T11:09:51;94602.88;;;23.06;29.13
12219;BME280;6172;42.646;23.344;2024-03-29T11:12:20;94600.63;;;22.17;29.60
12219;BME280;6172;42.646;23.344;2024-03-29T11:14:59;94596.38;;;22.84;28.50
12219;BME280;6172;42.646;23.344;2024-03-29T11:17:30;94593.41;;;23.35;28.26
12219;BME280;6172;42.646;23.344;2024-03-29T11:19:57;94591.00;;;23.59;28.36
12219;BME280;6172;42.646;23.344;2024-03-29T11:22:26;94587.75;;;23.71;28.32
12219;BME280;6172;42.646;23.344;2024-03-29T11:24:55;94587.44;;;23.58;28.80
12219;BME280;6172;42.646;23.344;2024-03-29T11:27:22;94583.97;;;23.69;28.90
12219;BME280;6172;42.646;23.344;2024-03-29T11:29:52;94585.06;;;23.99;28.23
12219;BME280;6172;42.646;23.344;2024-03-29T11:32:33;94579.25;;;24.08;27.97
12219;BME280;6172;42.646;23.344;2024-03-29T11:35:01;94582.34;;;24.32;27.76
12219;BME280;6172;42.646;23.344;2024-03-29T11:37:30;94581.84;;;24.45;28.04
12219;BME280;6172;42.646;23.344;2024-03-29T11:40:00;94588.56;;;23.88;27.63
12219;BME280;6172;42.646;23.344;2024-03-29T11:42:37;94584.84;;;24.19;27.47
12219;BME280;6172;42.646;23.344;2024-03-29T11:45:05;94589.97;;;24.48;26.96
12219;BME280;6172;42.646;23.344;2024-03-29T11:47:36;94581.59;;;24.65;26.83
12219;BME280;6172;42.646;23.344;2024-03-29T11:50:06;94587.66;;;24.63;27.64
12219;BME280;6172;42.646;23.344;2024-03-29T11:52:33;94576.00;;;24.81;27.22
12219;BME280;6172;42.646;23.344;2024-03-29T11:55:02;94563.09;;;24.78;27.04
12219;BME280;6172;42.646;23.344;2024-03-29T11:57:29;94572.97;;;24.79;27.09
12219;BME280;6172;42.646;23.344;2024-03-29T11:59:56;94568.69;;;24.40;27.98
12219;BME280;6172;42.646;23.344;2024-03-29T12:02:23;94572.97;;;24.46;27.77
12219;BME280;6172;42.646;23.344;2024-03-29T12:04:50;94567.16;;;24.50;26.98
12219;BME280;6172;42.646;23.344;2024-03-29T12:07:17;94570.91;;;24.14;27.99
12219;BME280;6172;42.646;23.344;2024-03-29T12:09:44;94561.59;;;24.39;27.99
12219;BME280;6172;42.646;23.344;2024-03-29T12:12:12;94556.94;;;23.75;27.96
12219;BME280;6172;42.646;23.344;2024-03-29T12:14:43;94563.28;;;24.03;28.62
12219;BME280;6172;42.646;23.344;2024-03-29T12:17:10;94565.91;;;24.34;28.40
12219;BME280;6172;42.646;23.344;2024-03-29T12:19:37;94563.09;;;24.29;28.42
12219;BME280;6172;42.646;23.344;2024-03-29T12:22:07;94563.13;;;24.40;28.47
12219;BME280;6172;42.646;23.344;2024-03-29T12:24:35;94553.47;;;24.52;28.09
12219;BME280;6172;42.646;23.344;2024-03-29T12:27:03;94559.03;;;24.24;28.64
12219;BME280;6172;42.646;23.344;2024-03-29T12:29:31;94554.50;;;24.65;28.21
12219;BME280;6172;42.646;23.344;2024-03-29T12:31:59;94559.56;;;24.67;28.50
12219;BME280;6172;42.646;23.344;2024-03-29T12:34:26;94562.78;;;24.10;28.02
12219;BME280;6172;42.646;23.344;2024-03-29T12:36:53;94563.06;;;23.96;28.64
12219;BME280;6172;42.646;23.344;2024-03-29T12:39:21;94558.72;;;23.94;28.93
12219;BME280;6172;42.646;23.344;2024-03-29T12:41:51;94556.28;;;24.41;28.55
12219;BME280;6172;42.646;23.344;2024-03-29T12:44:22;94558.31;;;24.46;28.69
12219;BME280;6172;42.646;23.344;2024-03-29T12:46:50;94554.22;;;24.58;28.67
12219;BME280;6172;42.646;23.344;2024-03-29T12:49:18;94548.66;;;24.30;29.03
12219;BME280;6172;42.646;23.344;2024-03-29T12:51:45;94551.47;;;24.52;28.77
12219;BME280;6172;42.646;23.344;2024-03-29T12:54:11;94548.41;;;24.45;28.54
12219;BME280;6172;42.646;23.344;2024-03-29T12:56:39;94553.00;;;24.31;29.52
12219;BME280;6172;42.646;23.344;2024-03-29T12:59:07;94541.00;;;23.92;28.96
12219;BME280;6172;42.646;23.344;2024-03-29T13:01:34;94546.78;;;23.66;29.34
12219;BME280;6172;42.646;23.344;2024-03-29T13:04:02;94542.28;;;24.08;28.60